sensor_id;sensor_type;location;lat;lon;timestamp;P1;durP1;ratioP1;P2;durP2;ratioP2
55545;SDS011;44768;50.298;127.520;2023-03-04T00:03:05;33.55;;;19.92;;
55545;SDS011;44768;50.298;127.520;2023-03-04T00:08:06;29.98;;;20.27;;
55545;SDS011;44768;50.298;127.520;2023-03-04T00:13:08;48.67;;;25.08;;
55545;SDS011;44768;50.298;127.520;2023-03-04T00:18:09;55.08;;;28.20;;
55545;SDS011;44768;50.298;127.520;2023-03-04T00:23:10;59.25;;;30.60;;
55545;SDS011;44768;50.298;127.520;2023-03-04T00:28:12;62.03;;;33.53;;
55545;SDS011;44768;50.298;127.520;2023-03-04T00:33:13;57.90;;;30.17;;
55545;SDS011;44768;50.298;127.520;2023-03-04T00:38:15;55.90;;;28.35;;
55545;SDS011;44768;50.298;127.520;2023-03-04T00:43:16;54.97;;;26.95;;
55545;SDS011;44768;50.298;127.520;2023-03-04T00:48:18;51.88;;;26.73;;
55545;SDS011;44768;50.298;127.520;2023-03-04T00:53:19;46.47;;;26.25;;
55545;SDS011;44768;50.298;127.520;2023-03-04T00:58:21;47.70;;;25.92;;
55545;SDS011;44768;50.298;127.520;2023-03-04T01:03:22;40.65;;;24.80;;
55545;SDS011;44768;50.298;127.520;2023-03-04T01:08:24;42.25;;;24.77;;
55545;SDS011;44768;50.298;127.520;2023-03-04T01:13:25;44.65;;;24.50;;
55545;SDS011;44768;50.298;127.520;2023-03-04T01:18:26;53.60;;;24.88;;
55545;SDS011;44768;50.298;127.520;2023-03-04T01:23:27;37.50;;;22.27;;
55545;SDS011;44768;50.298;127.520;2023-03-04T01:28:29;44.33;;;22.05;;
55545;SDS011;44768;50.298;127.520;2023-03-04T01:33:31;42.08;;;21.95;;
55545;SDS011;44768;50.298;127.520;2023-03-04T01:38:32;40.33;;;21.67;;
55545;SDS011;44768;50.298;127.520;2023-03-04T01:43:34;41.55;;;22.73;;
55545;SDS011;44768;50.298;127.520;2023-03-04T01:48:36;36.65;;;21.45;;
55545;SDS011;44768;50.298;127.520;2023-03-04T01:53:37;33.25;;;21.45;;
55545;SDS011;44768;50.298;127.520;2023-03-04T01:58:39;44.90;;;23.20;;
55545;SDS011;44768;50.298;127.520;2023-03-04T02:03:40;35.35;;;20.30;;
55545;SDS011;44768;50.298;127.520;2023-03-04T02:08:42;38.72;;;20.92;;
55545;SDS011;44768;50.298;127.520;2023-03-04T02:13:43;36.25;;;21.13;;
55545;SDS011;44768;50.298;127.520;2023-03-04T02:18:44;33.13;;;20.42;;
55545;SDS011;44768;50.298;127.520;2023-03-04T02:23:47;32.95;;;19.98;;
55545;SDS011;44768;50.298;127.520;2023-03-04T02:28:51;28.55;;;18.95;;
55545;SDS011;44768;50.298;127.520;2023-03-04T02:33:53;28.02;;;18.58;;
55545;SDS011;44768;50.298;127.520;2023-03-04T02:39:00;27.40;;;18.25;;
55545;SDS011;44768;50.298;127.520;2023-03-04T02:44:01;32.83;;;18.63;;
55545;SDS011;44768;50.298;127.520;2023-03-04T02:49:02;26.10;;;17.35;;
55545;SDS011;44768;50.298;127.520;2023-03-04T02:54:03;28.50;;;17.33;;
55545;SDS011;44768;50.298;127.520;2023-03-04T02:59:05;26.48;;;17.15;;
55545;SDS011;44768;50.298;127.520;2023-03-04T03:04:06;24.35;;;16.45;;
55545;SDS011;44768;50.298;127.520;2023-03-04T03:09:07;23.85;;;15.95;;
55545;SDS011;44768;50.298;127.520;2023-03-04T03:14:08;22.88;;;15.27;;
55545;SDS011;44768;50.298;127.520;2023-03-04T03:19:10;23.35;;;14.48;;
55545;SDS011;44768;50.298;127.520;2023-03-04T03:24:11;21.45;;;13.43;;
55545;SDS011;44768;50.298;127.520;2023-03-04T03:29:13;21.13;;;13.68;;
55545;SDS011;44768;50.298;127.520;2023-03-04T03:34:14;20.77;;;13.93;;
55545;SDS011;44768;50.298;127.520;2023-03-04T03:39:16;19.15;;;13.38;;
55545;SDS011;44768;50.298;127.520;2023-03-04T03:44:18;21.10;;;12.45;;
55545;SDS011;44768;50.298;127.520;2023-03-04T03:49:19;18.85;;;11.90;;
55545;SDS011;44768;50.298;127.520;2023-03-04T03:54:20;18.58;;;11.77;;
55545;SDS011;44768;50.298;127.520;2023-03-04T03:59:21;22.52;;;11.60;;
55545;SDS011;44768;50.298;127.520;2023-03-04T04:04:24;16.77;;;11.55;;
55545;SDS011;44768;50.298;127.520;2023-03-04T04:09:25;17.00;;;10.88;;
55545;SDS011;44768;50.298;127.520;2023-03-04T04:14:26;15.95;;;10.77;;
55545;SDS011;44768;50.298;127.520;2023-03-04T04:19:27;14.32;;;9.70;;
55545;SDS011;44768;50.298;127.520;2023-03-04T04:24:28;17.05;;;10.18;;
55545;SDS011;44768;50.298;127.520;2023-03-04T04:29:29;16.35;;;9.82;;
55545;SDS011;44768;50.298;127.520;2023-03-04T04:34:31;14.95;;;10.07;;
55545;SDS011;44768;50.298;127.520;2023-03-04T04:39:33;13.75;;;8.63;;
55545;SDS011;44768;50.298;127.520;2023-03-04T04:44:35;13.63;;;8.32;;
55545;SDS011;44768;50.298;127.520;2023-03-04T04:49:38;12.77;;;8.35;;
55545;SDS011;44768;50.298;127.520;2023-03-04T04:54:39;14.57;;;7.80;;
55545;SDS011;44768;50.298;127.520;2023-03-04T04:59:40;25.02;;;7.72;;
55545;SDS011;44768;50.298;127.520;2023-03-04T05:04:42;20.38;;;6.68;;
55545;SDS011;44768;50.298;127.520;2023-03-04T05:09:43;21.67;;;6.28;;
55545;SDS011;44768;50.298;127.520;2023-03-04T05:14:45;10.27;;;5.13;;
55545;SDS011;44768;50.298;127.520;2023-03-04T05:19:46;11.23;;;5.43;;
55545;SDS011;44768;50.298;127.520;2023-03-04T05:24:47;8.70;;;4.72;;
55545;SDS011;44768;50.298;127.520;2023-03-04T05:29:49;12.15;;;4.70;;
55545;SDS011;44768;50.298;127.520;2023-03-04T05:34:50;11.38;;;5.60;;
55545;SDS011;44768;50.298;127.520;2023-03-04T05:39:52;9.05;;;4.50;;
55545;SDS011;44768;50.298;127.520;2023-03-04T05:44:53;9.73;;;4.07;;
55545;SDS011;44768;50.298;127.520;2023-03-04T05:49:54;17.05;;;4.60;;
55545;SDS011;44768;50.298;127.520;2023-03-04T05:54:57;18.10;;;4.20;;
55545;SDS011;44768;50.298;127.520;2023-03-04T05:59:58;5.90;;;3.70;;
55545;SDS011;44768;50.298;127.520;2023-03-04T06:05:00;8.98;;;4.30;;
55545;SDS011;44768;50.298;127.520;2023-03-04T06:10:01;7.45;;;4.10;;
55545;SDS011;44768;50.298;127.520;2023-03-04T06:15:04;9.75;;;3.83;;
55545;SDS011;44768;50.298;127.520;2023-03-04T06:20:06;6.25;;;3.00;;
55545;SDS011;44768;50.298;127.520;2023-03-04T06:25:09;6.40;;;3.10;;
55545;SDS011;44768;50.298;127.520;2023-03-04T06:30:10;9.88;;;3.22;;
55545;SDS011;44768;50.298;127.520;2023-03-04T06:35:12;11.63;;;4.00;;
55545;SDS011;44768;50.298;127.520;2023-03-04T06:40:14;9.43;;;3.15;;
55545;SDS011;44768;50.298;127.520;2023-03-04T06:45:16;7.35;;;3.13;;
55545;SDS011;44768;50.298;127.520;2023-03-04T06:50:17;3.78;;;2.42;;
55545;SDS011;44768;50.298;127.520;2023-03-04T06:55:18;6.25;;;3.08;;
55545;SDS011;44768;50.298;127.520;2023-03-04T07:00:20;6.93;;;2.63;;
55545;SDS011;44768;50.298;127.520;2023-03-04T07:05:23;8.57;;;3.13;;
55545;SDS011;44768;50.298;127.520;2023-03-04T07:10:24;9.73;;;2.65;;
55545;SDS011;44768;50.298;127.520;2023-03-04T07:15:25;6.65;;;2.60;;
55545;SDS011;44768;50.298;127.520;2023-03-04T07:20:27;7.72;;;2.40;;
55545;SDS011;44768;50.298;127.520;2023-03-04T07:25:28;4.78;;;2.67;;
55545;SDS011;44768;50.298;127.520;2023-03-04T07:30:29;14.18;;;3.00;;
55545;SDS011;44768;50.298;127.520;2023-03-04T07:35:32;4.90;;;2.15;;
55545;SDS011;44768;50.298;127.520;2023-03-04T07:40:34;7.30;;;2.58;;
55545;SDS011;44768;50.298;127.520;2023-03-04T07:45:35;5.80;;;2.33;;
55545;SDS011;44768;50.298;127.520;2023-03-04T07:50:37;3.40;;;1.80;;
55545;SDS011;44768;50.298;127.520;2023-03-04T07:55:38;3.83;;;2.30;;
55545;SDS011;44768;50.298;127.520;2023-03-04T08:00:39;5.43;;;2.55;;
55545;SDS011;44768;50.298;127.520;2023-03-04T08:05:41;7.45;;;2.10;;
55545;SDS011;44768;50.298;127.520;2023-03-04T08:10:42;3.75;;;2.10;;
55545;SDS011;44768;50.298;127.520;2023-03-04T08:15:44;6.75;;;2.20;;
55545;SDS011;44768;50.298;127.520;2023-03-04T08:20:45;4.45;;;2.10;;
55545;SDS011;44768;50.298;127.520;2023-03-04T08:25:46;9.45;;;2.30;;
55545;SDS011;44768;50.298;127.520;2023-03-04T08:30:51;5.20;;;2.03;;
55545;SDS011;44768;50.298;127.520;2023-03-04T08:35:53;8.73;;;1.95;;
55545;SDS011;44768;50.298;127.520;2023-03-04T08:40:55;9.30;;;2.28;;
55545;SDS011;44768;50.298;127.520;2023-03-04T08:45:57;2.78;;;1.90;;
55545;SDS011;44768;50.298;127.520;2023-03-04T08:50:58;2.85;;;1.58;;
55545;SDS011;44768;50.298;127.520;2023-03-04T08:55:59;4.78;;;1.88;;
55545;SDS011;44768;50.298;127.520;2023-03-04T09:01:02;3.95;;;2.03;;
55545;SDS011;44768;50.298;127.520;2023-03-04T09:06:04;7.32;;;1.92;;
55545;SDS011;44768;50.298;127.520;2023-03-04T09:11:05;4.55;;;2.28;;
55545;SDS011;44768;50.298;127.520;2023-03-04T09:16:10;4.97;;;2.30;;
55545;SDS011;44768;50.298;127.520;2023-03-04T09:21:11;2.67;;;1.90;;
55545;SDS011;44768;50.298;127.520;2023-03-04T09:26:17;2.25;;;1.70;;
55545;SDS011;44768;50.298;127.520;2023-03-04T09:31:19;7.78;;;2.13;;
55545;SDS011;44768;50.298;127.520;2023-03-04T09:36:21;4.53;;;2.28;;
55545;SDS011;44768;50.298;127.520;2023-03-04T09:41:44;6.40;;;2.30;;
55545;SDS011;44768;50.298;127.520;2023-03-04T09:46:45;6.45;;;2.58;;
55545;SDS011;44768;50.298;127.520;2023-03-04T09:56:48;4.35;;;2.35;;
55545;SDS011;44768;50.298;127.520;2023-03-04T10:01:54;3.13;;;2.50;;
55545;SDS011;44768;50.298;127.520;2023-03-04T10:06:56;3.90;;;2.30;;
55545;SDS011;44768;50.298;127.520;2023-03-04T10:12:00;4.93;;;2.63;;
55545;SDS011;44768;50.298;127.520;2023-03-04T10:17:04;4.20;;;2.55;;
55545;SDS011;44768;50.298;127.520;2023-03-04T10:22:14;3.17;;;2.50;;
55545;SDS011;44768;50.298;127.520;2023-03-04T10:27:16;6.95;;;2.10;;
55545;SDS011;44768;50.298;127.520;2023-03-04T10:32:19;3.33;;;2.20;;
55545;SDS011;44768;50.298;127.520;2023-03-04T10:37:21;4.88;;;2.47;;
55545;SDS011;44768;50.298;127.520;2023-03-04T10:42:25;3.05;;;2.28;;
55545;SDS011;44768;50.298;127.520;2023-03-04T10:47:27;3.22;;;2.40;;
55545;SDS011;44768;50.298;127.520;2023-03-04T10:57:33;3.53;;;2.35;;
55545;SDS011;44768;50.298;127.520;2023-03-04T11:02:43;3.08;;;2.40;;
55545;SDS011;44768;50.298;127.520;2023-03-04T11:07:53;5.57;;;2.75;;
55545;SDS011;44768;50.298;127.520;2023-03-04T11:12:58;4.10;;;3.00;;
55545;SDS011;44768;50.298;127.520;2023-03-04T11:18:01;9.88;;;4.20;;
55545;SDS011;44768;50.298;127.520;2023-03-04T11:23:13;21.70;;;5.28;;
55545;SDS011;44768;50.298;127.520;2023-03-04T11:28:21;13.43;;;5.03;;
55545;SDS011;44768;50.298;127.520;2023-03-04T11:33:25;11.82;;;4.25;;
55545;SDS011;44768;50.298;127.520;2023-03-04T11:38:32;20.08;;;4.57;;
55545;SDS011;44768;50.298;127.520;2023-03-04T11:43:38;39.80;;;5.07;;
55545;SDS011;44768;50.298;127.520;2023-03-04T11:53:52;16.00;;;4.30;;
55545;SDS011;44768;50.298;127.520;2023-03-04T11:59:12;19.50;;;4.25;;
55545;SDS011;44768;50.298;127.520;2023-03-04T12:04:21;12.13;;;4.40;;
55545;SDS011;44768;50.298;127.520;2023-03-04T12:14:40;12.80;;;4.35;;
55545;SDS011;44768;50.298;127.520;2023-03-04T12:20:18;11.80;;;5.00;;
55545;SDS011;44768;50.298;127.520;2023-03-04T12:25:19;11.85;;;4.60;;
55545;SDS011;44768;50.298;127.520;2023-03-04T12:30:33;12.88;;;4.80;;
55545;SDS011;44768;50.298;127.520;2023-03-04T12:51:22;12.45;;;6.70;;
55545;SDS011;44768;50.298;127.520;2023-03-04T12:56:38;20.52;;;6.35;;
55545;SDS011;44768;50.298;127.520;2023-03-04T13:01:47;13.73;;;6.70;;
55545;SDS011;44768;50.298;127.520;2023-03-04T13:27:47;13.93;;;6.28;;
55545;SDS011;44768;50.298;127.520;2023-03-04T13:32:49;11.32;;;5.70;;
55545;SDS011;44768;50.298;127.520;2023-03-04T13:37:57;7.75;;;5.30;;
55545;SDS011;44768;50.298;127.520;2023-03-04T13:43:22;10.82;;;5.38;;
55545;SDS011;44768;50.298;127.520;2023-03-04T13:48:30;17.75;;;5.57;;
55545;SDS011;44768;50.298;127.520;2023-03-04T13:53:39;13.57;;;5.32;;
55545;SDS011;44768;50.298;127.520;2023-03-04T13:58:41;11.63;;;5.13;;
55545;SDS011;44768;50.298;127.520;2023-03-04T14:03:42;9.60;;;4.93;;
55545;SDS011;44768;50.298;127.520;2023-03-04T14:08:44;13.43;;;4.72;;
55545;SDS011;44768;50.298;127.520;2023-03-04T14:13:46;20.15;;;5.20;;
55545;SDS011;44768;50.298;127.520;2023-03-04T14:18:55;10.45;;;4.90;;
55545;SDS011;44768;50.298;127.520;2023-03-04T14:24:04;7.88;;;4.18;;
55545;SDS011;44768;50.298;127.520;2023-03-04T14:29:19;9.05;;;4.35;;
55545;SDS011;44768;50.298;127.520;2023-03-04T14:34:25;10.52;;;4.03;;
55545;SDS011;44768;50.298;127.520;2023-03-04T14:39:30;7.78;;;3.97;;
55545;SDS011;44768;50.298;127.520;2023-03-04T14:44:42;8.25;;;3.85;;
55545;SDS011;44768;50.298;127.520;2023-03-04T14:49:45;10.02;;;3.90;;
55545;SDS011;44768;50.298;127.520;2023-03-04T14:54:57;6.82;;;3.60;;
55545;SDS011;44768;50.298;127.520;2023-03-04T15:00:15;7.65;;;3.90;;
55545;SDS011;44768;50.298;127.520;2023-03-04T15:05:30;9.20;;;4.55;;
55545;SDS011;44768;50.298;127.520;2023-03-04T15:10:33;8.40;;;3.50;;
55545;SDS011;44768;50.298;127.520;2023-03-04T15:15:39;8.63;;;3.85;;
55545;SDS011;44768;50.298;127.520;2023-03-04T15:20:41;6.15;;;3.55;;
55545;SDS011;44768;50.298;127.520;2023-03-04T15:25:42;8.40;;;3.90;;
55545;SDS011;44768;50.298;127.520;2023-03-04T15:30:43;7.35;;;3.80;;
55545;SDS011;44768;50.298;127.520;2023-03-04T15:35:50;8.48;;;3.80;;
55545;SDS011;44768;50.298;127.520;2023-03-04T15:40:53;6.78;;;3.28;;
55545;SDS011;44768;50.298;127.520;2023-03-04T15:45:58;5.38;;;3.08;;
55545;SDS011;44768;50.298;127.520;2023-03-04T15:51:00;6.82;;;3.60;;
55545;SDS011;44768;50.298;127.520;2023-03-04T15:56:07;7.47;;;3.78;;
55545;SDS011;44768;50.298;127.520;2023-03-04T16:01:15;5.43;;;3.28;;
55545;SDS011;44768;50.298;127.520;2023-03-04T16:06:17;5.20;;;3.08;;
55545;SDS011;44768;50.298;127.520;2023-03-04T16:11:21;5.65;;;3.38;;
55545;SDS011;44768;50.298;127.520;2023-03-04T16:16:23;6.05;;;3.08;;
55545;SDS011;44768;50.298;127.520;2023-03-04T16:21:24;5.45;;;3.28;;
55545;SDS011;44768;50.298;127.520;2023-03-04T16:26:26;6.93;;;3.08;;
55545;SDS011;44768;50.298;127.520;2023-03-04T16:31:28;5.68;;;3.05;;
55545;SDS011;44768;50.298;127.520;2023-03-04T16:36:29;4.93;;;3.17;;
55545;SDS011;44768;50.298;127.520;2023-03-04T16:41:31;4.85;;;2.60;;
55545;SDS011;44768;50.298;127.520;2023-03-04T16:46:35;3.83;;;3.10;;
55545;SDS011;44768;50.298;127.520;2023-03-04T16:51:40;4.70;;;2.60;;
55545;SDS011;44768;50.298;127.520;2023-03-04T16:56:43;6.90;;;3.10;;
55545;SDS011;44768;50.298;127.520;2023-03-04T17:01:45;3.90;;;3.10;;
55545;SDS011;44768;50.298;127.520;2023-03-04T17:06:46;4.03;;;2.80;;
55545;SDS011;44768;50.298;127.520;2023-03-04T17:11:47;4.95;;;2.80;;
55545;SDS011;44768;50.298;127.520;2023-03-04T17:16:49;5.03;;;2.85;;
55545;SDS011;44768;50.298;127.520;2023-03-04T17:21:50;4.65;;;2.88;;
55545;SDS011;44768;50.298;127.520;2023-03-04T17:26:51;5.50;;;2.92;;
55545;SDS011;44768;50.298;127.520;2023-03-04T17:31:52;4.43;;;3.03;;
55545;SDS011;44768;50.298;127.520;2023-03-04T17:36:54;6.93;;;3.00;;
55545;SDS011;44768;50.298;127.520;2023-03-04T17:41:55;5.25;;;3.25;;
55545;SDS011;44768;50.298;127.520;2023-03-04T17:46:56;4.72;;;2.88;;
55545;SDS011;44768;50.298;127.520;2023-03-04T17:51:58;3.85;;;3.00;;
55545;SDS011;44768;50.298;127.520;2023-03-04T17:57:00;3.80;;;2.90;;
55545;SDS011;44768;50.298;127.520;2023-03-04T18:02:02;3.70;;;2.80;;
55545;SDS011;44768;50.298;127.520;2023-03-04T18:07:04;5.28;;;3.00;;
55545;SDS011;44768;50.298;127.520;2023-03-04T18:12:05;3.63;;;2.78;;
55545;SDS011;44768;50.298;127.520;2023-03-04T18:17:07;4.57;;;2.95;;
55545;SDS011;44768;50.298;127.520;2023-03-04T18:22:08;5.05;;;2.90;;
55545;SDS011;44768;50.298;127.520;2023-03-04T18:27:09;4.85;;;3.13;;
55545;SDS011;44768;50.298;127.520;2023-03-04T18:32:10;4.88;;;3.33;;
55545;SDS011;44768;50.298;127.520;2023-03-04T18:37:12;5.80;;;2.80;;
55545;SDS011;44768;50.298;127.520;2023-03-04T18:42:13;4.38;;;2.97;;
55545;SDS011;44768;50.298;127.520;2023-03-04T18:47:15;4.22;;;2.80;;
55545;SDS011;44768;50.298;127.520;2023-03-04T18:52:16;4.10;;;2.58;;
55545;SDS011;44768;50.298;127.520;2023-03-04T18:57:18;5.72;;;2.97;;
55545;SDS011;44768;50.298;127.520;2023-03-04T19:07:27;3.97;;;2.90;;
55545;SDS011;44768;50.298;127.520;2023-03-04T19:12:28;4.00;;;3.00;;
55545;SDS011;44768;50.298;127.520;2023-03-04T19:17:30;4.90;;;2.95;;
55545;SDS011;44768;50.298;127.520;2023-03-04T19:22:32;5.63;;;3.03;;
55545;SDS011;44768;50.298;127.520;2023-03-04T19:27:33;3.60;;;3.15;;
55545;SDS011;44768;50.298;127.520;2023-03-04T19:32:34;4.32;;;3.00;;
55545;SDS011;44768;50.298;127.520;2023-03-04T19:37:37;4.95;;;3.00;;
55545;SDS011;44768;50.298;127.520;2023-03-04T19:42:39;4.20;;;2.80;;
55545;SDS011;44768;50.298;127.520;2023-03-04T19:47:41;4.60;;;2.60;;
55545;SDS011;44768;50.298;127.520;2023-03-04T19:52:42;3.28;;;2.88;;
55545;SDS011;44768;50.298;127.520;2023-03-04T19:57:44;8.73;;;3.13;;
55545;SDS011;44768;50.298;127.520;2023-03-04T20:02:45;4.32;;;3.00;;
55545;SDS011;44768;50.298;127.520;2023-03-04T20:07:49;7.35;;;3.80;;
55545;SDS011;44768;50.298;127.520;2023-03-04T20:12:50;6.00;;;3.50;;
55545;SDS011;44768;50.298;127.520;2023-03-04T20:17:53;6.45;;;3.30;;
55545;SDS011;44768;50.298;127.520;2023-03-04T20:22:55;6.88;;;3.38;;
55545;SDS011;44768;50.298;127.520;2023-03-04T20:27:57;7.53;;;3.50;;
55545;SDS011;44768;50.298;127.520;2023-03-04T20:32:58;7.82;;;3.67;;
55545;SDS011;44768;50.298;127.520;2023-03-04T20:37:59;8.30;;;3.60;;
55545;SDS011;44768;50.298;127.520;2023-03-04T20:43:01;5.45;;;3.22;;
55545;SDS011;44768;50.298;127.520;2023-03-04T20:48:05;15.25;;;3.70;;
55545;SDS011;44768;50.298;127.520;2023-03-04T20:53:06;7.45;;;3.95;;
55545;SDS011;44768;50.298;127.520;2023-03-04T20:58:08;10.25;;;3.80;;
55545;SDS011;44768;50.298;127.520;2023-03-04T21:03:09;15.48;;;4.80;;
55545;SDS011;44768;50.298;127.520;2023-03-04T21:08:10;20.40;;;6.30;;
55545;SDS011;44768;50.298;127.520;2023-03-04T21:13:13;16.13;;;8.10;;
55545;SDS011;44768;50.298;127.520;2023-03-04T21:18:16;11.27;;;6.60;;
55545;SDS011;44768;50.298;127.520;2023-03-04T21:23:18;8.27;;;4.55;;
55545;SDS011;44768;50.298;127.520;2023-03-04T21:28:19;6.68;;;4.10;;
55545;SDS011;44768;50.298;127.520;2023-03-04T21:33:20;13.38;;;3.70;;
55545;SDS011;44768;50.298;127.520;2023-03-04T21:38:24;7.38;;;3.05;;
55545;SDS011;44768;50.298;127.520;2023-03-04T21:43:25;8.02;;;4.15;;
55545;SDS011;44768;50.298;127.520;2023-03-04T21:48:26;10.85;;;3.60;;
55545;SDS011;44768;50.298;127.520;2023-03-04T21:53:28;6.43;;;3.42;;
55545;SDS011;44768;50.298;127.520;2023-03-04T21:58:30;13.50;;;4.13;;
55545;SDS011;44768;50.298;127.520;2023-03-04T22:03:31;6.32;;;3.85;;
55545;SDS011;44768;50.298;127.520;2023-03-04T22:08:33;11.32;;;6.93;;
55545;SDS011;44768;50.298;127.520;2023-03-04T22:13:34;11.38;;;7.75;;
55545;SDS011;44768;50.298;127.520;2023-03-04T22:18:37;18.88;;;9.93;;
55545;SDS011;44768;50.298;127.520;2023-03-04T22:23:40;21.88;;;10.98;;
55545;SDS011;44768;50.298;127.520;2023-03-04T22:28:42;22.25;;;11.20;;
55545;SDS011;44768;50.298;127.520;2023-03-04T22:33:43;28.90;;;11.57;;
55545;SDS011;44768;50.298;127.520;2023-03-04T22:38:45;18.65;;;11.32;;
55545;SDS011;44768;50.298;127.520;2023-03-04T22:43:46;21.15;;;11.73;;
55545;SDS011;44768;50.298;127.520;2023-03-04T22:48:48;22.88;;;10.43;;
55545;SDS011;44768;50.298;127.520;2023-03-04T22:53:50;45.63;;;17.58;;
55545;SDS011;44768;50.298;127.520;2023-03-04T22:58:51;55.00;;;17.10;;
55545;SDS011;44768;50.298;127.520;2023-03-04T23:03:53;32.85;;;15.05;;
55545;SDS011;44768;50.298;127.520;2023-03-04T23:08:55;28.60;;;13.80;;
55545;SDS011;44768;50.298;127.520;2023-03-04T23:13:56;28.63;;;13.13;;
55545;SDS011;44768;50.298;127.520;2023-03-04T23:18:59;25.35;;;13.18;;
55545;SDS011;44768;50.298;127.520;2023-03-04T23:24:00;26.10;;;11.50;;
55545;SDS011;44768;50.298;127.520;2023-03-04T23:29:02;26.20;;;11.18;;
55545;SDS011;44768;50.298;127.520;2023-03-04T23:34:04;20.80;;;10.52;;
55545;SDS011;44768;50.298;127.520;2023-03-04T23:39:06;19.85;;;9.50;;
55545;SDS011;44768;50.298;127.520;2023-03-04T23:44:08;18.05;;;9.45;;
55545;SDS011;44768;50.298;127.520;2023-03-04T23:49:11;15.88;;;8.75;;
55545;SDS011;44768;50.298;127.520;2023-03-04T23:54:12;25.10;;;8.80;;
55545;SDS011;44768;50.298;127.520;2023-03-04T23:59:14;18.33;;;9.13;;
